Time;durP1;ratioP1;P1;durP2;ratioP2;P2;SDS_P1;SDS_P2;PMS_P1;PMS_P2;Temp;Humidity;BMP_temperature;BMP_pressure;BME280_temperature;BME280_humidity;BME280_pressure;Samples;Min_cycle;Max_cycle;Signal;HPM_P1;HPM_P2
2021/07/11 00:01:54;;;;;;;3.40;2.20;;;;;;;23.34;39.76;94575.59;2966889;40;20063;-69
2021/07/11 00:03:56;;;;;;;9.23;2.45;;;;;;;23.33;39.77;94573.97;2965642;40;20106;-69
2021/07/11 00:05:57;;;;;;;3.67;2.40;;;;;;;23.34;40.09;94574.75;2964069;40;20109;-70
2021/07/11 00:07:59;;;;;;;4.40;2.40;;;;;;;23.26;40.24;94576.78;2962493;40;20044;-70
2021/07/11 00:10:03;;;;;;;3.88;2.40;;;;;;;23.13;40.65;94571.75;2963675;40;20056;-69
2021/07/11 00:12:05;;;;;;;3.10;1.88;;;;;;;23.03;40.83;94579.59;2967972;40;20421;-82
2021/07/11 00:14:07;;;;;;;9.07;2.67;;;;;;;23.03;41.07;94576.91;2967682;40;20181;-81
2021/07/11 00:16:09;;;;;;;3.10;2.50;;;;;;;23.03;41.23;94582.25;2968191;40;20377;-81
2021/07/11 00:18:11;;;;;;;4.47;2.45;;;;;;;23.05;40.96;94570.28;2967731;40;20161;-84
2021/07/11 00:20:14;;;;;;;3.38;2.05;;;;;;;23.04;40.85;94578.53;2968659;40;20113;-81
2021/07/11 00:22:16;;;;;;;3.03;2.30;;;;;;;22.99;41.07;94565.03;2969471;40;20082;-81
2021/07/11 00:24:18;;;;;;;4.40;2.30;;;;;;;22.92;41.31;94567.06;2968201;40;20062;-80
2021/07/11 00:26:19;;;;;;;4.80;2.05;;;;;;;22.91;41.16;94571.59;2968063;40;20246;-81
2021/07/11 00:28:22;;;;;;;3.55;2.33;;;;;;;22.77;41.65;94564.91;2960012;40;20484;-81
2021/07/11 00:30:23;;;;;;;3.22;2.65;;;;;;;22.78;41.66;94570.03;2967646;40;20139;-80
2021/07/11 00:32:26;;;;;;;3.40;2.30;;;;;;;22.82;41.55;94575.69;2967529;40;20136;-82
2021/07/11 00:34:28;;;;;;;4.97;2.13;;;;;;;22.90;41.42;94567.28;2964260;40;20442;-81
2021/07/11 00:36:29;;;;;;;4.38;2.50;;;;;;;22.99;41.06;94562.38;2966824;40;20331;-80
2021/07/11 00:38:31;;;;;;;4.68;2.38;;;;;;;23.05;41.11;94572.13;2966583;40;20060;-82
2021/07/11 00:40:33;;;;;;;4.10;2.50;;;;;;;23.07;41.40;94572.72;2968109;40;20064;-81
2021/07/11 00:42:35;;;;;;;2.90;2.03;;;;;;;23.03;40.98;94566.22;2967122;40;20145;-83
2021/07/11 00:44:37;;;;;;;5.25;2.63;;;;;;;23.05;41.31;94570.28;2972223;40;20056;-84
2021/07/11 00:46:39;;;;;;;5.68;2.72;;;;;;;22.95;41.26;94564.72;2976317;40;20381;-83
2021/07/11 00:48:41;;;;;;;3.08;2.20;;;;;;;22.82;41.77;94563.16;2955593;40;20198;-81
2021/07/11 00:50:43;;;;;;;3.72;2.60;;;;;;;22.83;41.88;94566.63;2952189;40;20388;-80
2021/07/11 00:52:44;;;;;;;6.22;2.35;;;;;;;22.88;41.86;94570.19;2966046;40;20047;-80
2021/07/11 00:54:46;;;;;;;5.03;2.40;;;;;;;22.93;41.61;94568.66;2962442;40;20121;-81
2021/07/11 00:56:49;;;;;;;2.92;2.17;;;;;;;22.89;41.73;94566.50;2964090;40;20068;-68
2021/07/11 00:58:51;;;;;;;4.57;2.45;;;;;;;22.88;41.63;94564.84;2967046;40;20044;-83
2021/07/11 01:00:55;;;;;;;5.88;2.40;;;;;;;22.90;41.75;94567.28;2959348;40;20124;-82
2021/07/11 01:03:06;;;;;;;5.72;2.60;;;;;;;23.01;41.33;94563.78;2968986;40;20443;-81
2021/07/11 01:05:10;;;;;;;4.72;2.40;;;;;;;23.01;41.23;94563.78;2954639;40;20158;-81
2021/07/11 01:07:12;;;;;;;5.75;2.50;;;;;;;23.02;40.92;94561.94;2963313;40;21509;-80
2021/07/11 01:09:24;;;;;;;3.92;2.45;;;;;;;23.08;41.21;94563.63;2968000;40;20051;-79
2021/07/11 01:11:28;;;;;;;3.80;2.40;;;;;;;23.10;41.14;94565.03;2951702;40;20118;-81
2021/07/11 01:13:30;;;;;;;4.05;2.28;;;;;;;23.21;40.79;94562.53;2967436;40;20424;-81
2021/07/11 01:15:32;;;;;;;3.67;2.83;;;;;;;23.22;41.03;94558.81;2957675;40;20150;-82
2021/07/11 01:17:35;;;;;;;6.03;2.50;;;;;;;23.30;41.20;94559.22;2967722;40;20089;-81
2021/07/11 01:19:48;;;;;;;4.38;2.50;;;;;;;23.35;40.87;94552.34;2965368;40;20112;-82
2021/07/11 01:21:52;;;;;;;3.25;2.30;;;;;;;23.36;40.71;94553.94;2966088;40;20410;-81
2021/07/11 01:24:27;;;;;;;3.80;2.42;;;;;;;23.36;40.40;94551.28;2956259;40;20049;-80
2021/07/11 01:26:28;;;;;;;;;;;;;;;23.37;40.62;94552.91;2958169;40;20061;-81
2021/07/11 01:28:30;;;;;;;4.97;2.78;;;;;;;23.41;40.60;94554.06;2964411;40;19991;-80
2021/07/11 01:30:33;;;;;;;7.00;2.50;;;;;;;23.43;40.87;94559.97;2965194;40;20425;-80
2021/07/11 01:32:36;;;;;;;3.88;2.67;;;;;;;23.42;40.74;94553.00;2955409;40;20202;-80
2021/07/11 01:34:39;;;;;;;6.03;2.58;;;;;;;23.40;41.00;94557.75;2966389;40;20069;-79
2021/07/11 01:36:41;;;;;;;5.70;2.70;;;;;;;23.40;40.79;94555.91;2966421;40;20117;-80
2021/07/11 01:38:43;;;;;;;5.20;2.70;;;;;;;23.41;41.01;94554.84;2971015;40;20055;-82
2021/07/11 01:40:47;;;;;;;3.38;2.65;;;;;;;23.38;41.06;94551.84;2953603;40;20165;-79
2021/07/11 01:42:51;;;;;;;4.03;2.30;;;;;;;23.44;40.93;94559.69;2961703;40;20056;-80
2021/07/11 01:44:53;;;;;;;4.82;2.20;;;;;;;23.47;40.99;94555.75;2967625;40;20390;-81
2021/07/11 01:46:55;;;;;;;3.70;2.70;;;;;;;23.47;40.66;94563.78;2967351;40;20132;-80
2021/07/11 01:48:58;;;;;;;3.70;2.58;;;;;;;23.36;40.89;94556.63;2967075;40;20064;-81
2021/07/11 01:51:01;;;;;;;5.40;2.50;;;;;;;23.36;40.46;94560.13;2960228;40;20344;-82
2021/07/11 01:53:02;;;;;;;3.78;2.42;;;;;;;;;;2972646;40;20505;-80
2021/07/11 01:55:07;;;;;;;5.15;3.03;;;;;;;23.29;40.92;94560.25;2971873;40;20060;-80
2021/07/11 01:57:09;;;;;;;4.32;3.08;;;;;;;23.28;41.17;94553.31;2968177;40;20296;-81
2021/07/11 01:59:10;;;;;;;5.07;3.20;;;;;;;23.24;41.96;94554.84;2972184;40;20052;-78
2021/07/11 02:01:15;;;;;;;7.10;3.30;;;;;;;23.11;42.13;94565.84;2969037;40;20056;-79
2021/07/11 02:03:18;;;;;;;5.05;3.10;;;;;;;22.85;43.22;94569.88;2965637;40;20141;-81
2021/07/11 02:05:19;;;;;;;4.80;2.78;;;;;;;22.55;44.10;94572.78;2959807;40;20053;-81
2021/07/11 02:07:21;;;;;;;5.10;2.88;;;;;;;22.38;44.04;94572.69;2968297;40;20149;-80
2021/07/11 02:09:23;;;;;;;3.88;3.10;;;;;;;22.24;44.39;94580.13;2964768;40;20141;-80
2021/07/11 02:11:25;;;;;;;5.35;3.40;;;;;;;22.19;44.93;94577.34;2960407;40;20060;-80
2021/07/11 02:13:42;;;;;;;4.55;2.92;;;;;;;22.20;44.65;94585.09;2960239;40;20098;-79
2021/07/11 02:15:45;;;;;;;5.13;2.85;;;;;;;22.26;44.76;94588.72;2965920;40;20369;-80
2021/07/11 02:17:49;;;;;;;4.63;2.65;;;;;;;22.36;44.36;94586.25;2960960;40;20126;-82
2021/07/11 02:19:51;;;;;;;5.45;3.13;;;;;;;22.41;44.28;94588.22;2958714;40;20114;-82
2021/07/11 02:21:53;;;;;;;5.43;3.40;;;;;;;22.40;43.78;94590.09;2961492;40;20126;-81
2021/07/11 02:23:57;;;;;;;4.47;3.10;;;;;;;22.44;44.09;94585.09;2965636;40;20044;-80
2021/07/11 02:25:59;;;;;;;5.18;2.70;;;;;;;22.44;44.24;94585.91;2956523;40;20125;-82
2021/07/11 02:28:02;;;;;;;4.05;2.75;;;;;;;22.43;44.28;94594.94;2966957;40;20317;-81
2021/07/11 02:30:11;;;;;;;5.25;3.00;;;;;;;22.43;44.63;94594.13;2968702;40;20071;-82
2021/07/11 02:32:15;;;;;;;7.45;2.65;;;;;;;22.37;44.34;94597.75;2966997;40;20054;-81
2021/07/11 02:34:16;;;;;;;3.97;3.25;;;;;;;22.36;44.47;94598.81;2964525;40;20409;-81
2021/07/11 02:36:25;;;;;;;3.92;3.10;;;;;;;22.35;44.28;94598.00;2973746;40;20412;-80
2021/07/11 02:38:39;;;;;;;4.72;3.17;;;;;;;22.37;44.61;94595.06;2970284;40;20063;-83
2021/07/11 02:40:42;;;;;;;4.43;2.80;;;;;;;22.41;44.42;94591.72;2956666;40;20061;-80
2021/07/11 02:42:45;;;;;;;9.75;3.22;;;;;;;22.46;44.44;94597.16;2964524;40;20090;-79
2021/07/11 02:44:51;;;;;;;4.20;3.03;;;;;;;22.51;44.15;94595.66;2967519;40;20068;-81
2021/07/11 02:46:57;;;;;;;8.85;3.00;;;;;;;22.54;44.11;94600.50;2959868;40;20162;-80
2021/07/11 02:49:00;;;;;;;4.18;2.50;;;;;;;22.56;44.14;94598.41;2960408;40;20065;-81
2021/07/11 02:51:02;;;;;;;7.78;4.70;;;;;;;22.49;44.11;94604.69;2968046;40;20072;-81
2021/07/11 02:53:04;;;;;;;7.22;3.67;;;;;;;22.30;44.02;94600.53;2970376;40;20091;-80
2021/07/11 02:55:11;;;;;;;5.55;3.83;;;;;;;22.25;44.77;94598.56;2959687;40;20057;-82
2021/07/11 02:57:14;;;;;;;4.05;2.95;;;;;;;22.29;44.62;94601.59;2967053;40;20067;-81
2021/07/11 02:59:16;;;;;;;3.53;2.90;;;;;;;22.34;44.41;94608.91;2958076;40;20151;-80
2021/07/11 03:01:18;;;;;;;6.47;3.20;;;;;;;22.35;44.31;94606.00;2960644;40;20427;-80
2021/07/11 03:03:20;;;;;;;5.30;3.28;;;;;;;22.41;44.67;94613.09;2964063;40;20643;-80
2021/07/11 03:05:23;;;;;;;5.50;3.30;;;;;;;22.41;44.33;94618.41;2968932;40;20079;-80
2021/07/11 03:07:25;;;;;;;5.60;3.30;;;;;;;22.40;44.19;94616.78;2971296;40;20072;-79
2021/07/11 03:09:26;;;;;;;4.65;3.00;;;;;;;22.45;43.75;94616.88;2955999;40;20068;-83
2021/07/11 03:11:30;;;;;;;4.78;3.42;;;;;;;22.41;44.22;94620.25;2965577;40;20092;-80
2021/07/11 03:13:34;;;;;;;5.72;3.33;;;;;;;22.40;44.33;94615.97;2961750;40;20076;-80
2021/07/11 03:15:36;;;;;;;4.20;2.85;;;;;;;22.44;44.48;94617.94;2971049;40;20064;-80
2021/07/11 03:17:39;;;;;;;4.13;2.95;;;;;;;22.47;43.96;94617.44;2961675;40;20512;-81
2021/07/11 03:19:42;;;;;;;4.07;3.28;;;;;;;22.49;44.35;94615.38;2961293;40;20089;-80
2021/07/11 03:21:45;;;;;;;4.25;2.80;;;;;;;22.49;44.35;94617.22;2964710;40;20059;-79
2021/07/11 03:23:48;;;;;;;6.22;3.05;;;;;;;22.44;44.03;94612.59;2966418;40;20220;-80
2021/07/11 03:25:51;;;;;;;4.80;3.65;;;;;;;22.41;44.11;94615.75;2965289;40;20056;-80
2021/07/11 03:27:54;;;;;;;4.97;3.60;;;;;;;22.43;44.06;94616.28;2958409;40;20056;-80
2021/07/11 03:30:19;;;;;;;5.78;3.42;;;;;;;22.48;44.04;94618.28;2958823;40;20118;-68
2021/07/11 03:32:22;;;;;;;4.00;2.97;;;;;;;22.52;44.13;94624.78;2962603;40;20051;-69
2021/07/11 03:34:28;;;;;;;6.30;3.65;;;;;;;22.36;44.99;94625.50;2966239;40;20102;-68
2021/07/11 03:36:31;;;;;;;8.90;3.83;;;;;;;22.07;45.73;94623.50;2965497;40;20060;-70
2021/07/11 03:38:38;;;;;;;7.70;3.75;;;;;;;21.65;46.74;94620.91;2967608;40;20145;-69
2021/07/11 03:40:43;;;;;;;6.38;3.75;;;;;;;21.07;47.87;94624.22;2961463;40;20100;-69
2021/07/11 03:42:48;;;;;;;7.45;3.70;;;;;;;20.92;48.67;94623.81;2960949;40;20065;-68
2021/07/11 03:44:53;;;;;;;8.02;4.00;;;;;;;20.84;48.41;94627.59;2953988;40;20068;-70
2021/07/11 03:46:56;;;;;;;6.32;4.20;;;;;;;20.75;48.66;94626.28;2961685;40;20142;-69
2021/07/11 03:49:00;;;;;;;6.60;4.30;;;;;;;20.87;48.88;94624.50;2965319;40;20049;-68
2021/07/11 03:51:03;;;;;;;5.25;3.65;;;;;;;21.16;47.88;94619.38;2966730;40;20048;-69
2021/07/11 03:53:07;;;;;;;6.43;3.80;;;;;;;21.40;46.94;94620.25;2955865;40;20068;-69
2021/07/11 03:55:10;;;;;;;5.43;3.83;;;;;;;21.67;46.84;94618.84;2966532;40;20084;-68
2021/07/11 03:57:12;;;;;;;6.07;3.40;;;;;;;21.86;46.43;94624.88;2956962;40;20554;-71
2021/07/11 03:59:15;;;;;;;6.40;4.20;;;;;;;21.92;45.72;94630.34;2958365;40;20052;-69
2021/07/11 04:01:20;;;;;;;6.15;3.97;;;;;;;20.77;48.75;94643.66;2955536;40;20066;-69
2021/07/11 04:03:26;;;;;;;6.45;4.05;;;;;;;20.49;49.83;94638.03;2958716;40;20604;-81
2021/07/11 04:05:30;;;;;;;7.13;3.45;;;;;;;20.36;50.31;94645.09;2954968;40;20333;-81
2021/07/11 04:07:34;;;;;;;5.28;3.72;;;;;;;20.56;49.90;94638.75;2961180;40;20044;-82
2021/07/11 04:09:36;;;;;;;6.32;3.88;;;;;;;20.91;49.18;94641.66;2969714;40;20068;-80
2021/07/11 04:11:38;;;;;;;5.65;3.55;;;;;;;21.27;48.43;94640.75;2961837;40;20069;-80
2021/07/11 04:13:40;;;;;;;9.52;4.05;;;;;;;21.58;47.02;94638.88;2960488;40;20072;-79
2021/07/11 04:15:47;;;;;;;5.95;4.00;;;;;;;21.82;46.69;94641.59;2967677;40;20045;-79
2021/07/11 04:17:50;;;;;;;8.57;4.43;;;;;;;22.02;46.05;94641.25;2960091;40;20152;-80
2021/07/11 04:19:55;;;;;;;;;;;;;;;22.03;46.14;94642.88;2953761;40;20082;-80
2021/07/11 04:21:57;;;;;;;7.55;4.20;;;;;;;22.13;45.88;94647.63;2959610;40;19940;-80
2021/07/11 04:24:02;;;;;;;6.95;4.82;;;;;;;22.19;45.85;94650.16;2960559;40;20433;-81
2021/07/11 04:26:04;;;;;;;6.68;4.20;;;;;;;22.27;45.52;94649.06;2953195;40;20060;-83
2021/07/11 04:28:07;;;;;;;10.20;4.72;;;;;;;22.33;45.32;94648.13;2965820;40;20245;-81
2021/07/11 04:30:09;;;;;;;5.95;4.07;;;;;;;22.11;46.38;94649.72;2968143;40;20061;-79
2021/07/11 04:32:10;;;;;;;9.77;4.57;;;;;;;21.78;46.89;94656.41;2971923;40;20450;-83
2021/07/11 04:34:29;;;;;;;9.18;4.93;;;;;;;21.51;47.69;94651.50;2970062;40;20075;-82
2021/07/11 04:36:31;;;;;;;8.45;4.13;;;;;;;21.38;48.13;94651.66;2958772;40;20400;-82
2021/07/11 04:38:33;;;;;;;5.60;4.00;;;;;;;21.40;47.98;94654.91;2968455;40;20051;-82
2021/07/11 04:40:37;;;;;;;5.65;3.83;;;;;;;21.56;47.79;94658.81;2959667;40;20060;-81
2021/07/11 04:42:39;;;;;;;6.03;3.97;;;;;;;21.75;46.80;94649.69;2959996;40;20701;-82
2021/07/11 04:44:44;;;;;;;6.25;3.78;;;;;;;21.83;46.33;94651.19;2966865;40;20117;-81
2021/07/11 04:46:46;;;;;;;7.70;3.58;;;;;;;21.81;46.07;94651.44;2976722;40;20077;-81
2021/07/11 04:48:48;;;;;;;7.18;3.97;;;;;;;21.44;47.51;94664.09;2971973;40;20190;-80
2021/07/11 04:50:50;;;;;;;7.68;3.92;;;;;;;21.16;48.27;94656.69;2971603;40;20057;-83
2021/07/11 04:52:52;;;;;;;7.07;4.00;;;;;;;21.19;48.52;94651.72;2972639;40;20489;-82
2021/07/11 04:54:53;;;;;;;6.20;3.50;;;;;;;21.37;47.88;94658.03;2965889;40;20052;-82
2021/07/11 04:56:55;;;;;;;9.77;4.38;;;;;;;21.57;47.56;94657.75;2969570;40;20052;-82
2021/07/11 04:58:57;;;;;;;7.93;4.03;;;;;;;21.81;46.82;94653.28;2969608;40;20126;-79
2021/07/11 05:00:59;;;;;;;4.80;3.90;;;;;;;21.57;47.17;94655.91;2968024;40;20064;-82
2021/07/11 05:03:00;;;;;;;6.50;4.03;;;;;;;21.69;46.89;94661.28;2968802;40;20060;-86
2021/07/11 05:05:04;;;;;;;5.95;3.60;;;;;;;21.62;46.88;94653.38;2972524;40;20393;-82
2021/07/11 05:07:06;;;;;;;7.03;3.85;;;;;;;21.76;47.08;94659.31;2963584;40;20060;-81
2021/07/11 05:09:08;;;;;;;5.97;3.55;;;;;;;21.95;46.33;94652.03;2966718;40;20118;-70
2021/07/11 05:11:09;;;;;;;7.38;4.00;;;;;;;22.04;46.46;94655.16;2965548;40;20056;-68
2021/07/11 05:13:11;;;;;;;5.85;3.50;;;;;;;22.08;46.16;94656.31;2966092;40;20068;-69
2021/07/11 05:15:13;;;;;;;7.80;4.03;;;;;;;22.19;46.06;94652.03;2969906;40;20052;-68
2021/07/11 05:17:15;;;;;;;5.63;4.28;;;;;;;22.17;46.10;94648.78;2975317;40;20296;-69
2021/07/11 05:19:17;;;;;;;10.60;4.20;;;;;;;21.87;47.07;94655.84;2973737;40;20472;-69
2021/07/11 05:21:19;;;;;;;8.52;3.83;;;;;;;21.93;47.13;94648.78;2967634;40;20091;-70
2021/07/11 05:23:21;;;;;;;8.40;4.00;;;;;;;21.93;47.30;94651.44;2962984;40;20124;-68
2021/07/11 05:25:23;;;;;;;8.80;4.03;;;;;;;22.14;47.03;94641.25;2967176;40;20052;-82
2021/07/11 05:27:27;;;;;;;6.68;3.45;;;;;;;22.36;46.95;94649.50;2963736;40;20441;-82
2021/07/11 05:29:28;;;;;;;;;;;;;;;22.47;46.18;94654.81;2960087;40;20100;-79
2021/07/11 05:31:30;;;;;;;8.30;4.13;;;;;;;22.65;46.46;94655.72;2969566;40;20034;-82
2021/07/11 05:33:32;;;;;;;6.82;4.20;;;;;;;22.81;46.30;94649.66;2969193;40;20048;-82
2021/07/11 05:35:34;;;;;;;8.55;4.25;;;;;;;22.42;46.70;94653.91;2968935;40;20077;-83
2021/07/11 05:37:35;;;;;;;6.88;4.00;;;;;;;22.24;47.25;94650.34;2968503;40;20087;-84
2021/07/11 05:39:37;;;;;;;6.45;4.13;;;;;;;22.37;47.14;94651.94;2970461;40;20056;-82
2021/07/11 05:41:39;;;;;;;7.38;4.32;;;;;;;22.57;46.37;94653.44;2972392;40;20060;-81
2021/07/11 05:43:40;;;;;;;7.07;4.03;;;;;;;22.55;46.20;94652.84;2979077;40;20181;-81
2021/07/11 05:45:43;;;;;;;10.15;4.40;;;;;;;22.85;46.24;94652.69;2971062;40;20348;-82
2021/07/11 05:47:46;;;;;;;9.73;4.40;;;;;;;23.03;45.45;94651.72;2969195;40;20108;-85
2021/07/11 05:49:48;;;;;;;9.65;4.72;;;;;;;22.81;45.84;94648.84;2969503;40;20050;-84
2021/07/11 05:51:53;;;;;;;6.90;4.65;;;;;;;22.90;45.46;94653.56;2960327;40;20070;-82
2021/07/11 05:53:55;;;;;;;15.18;4.85;;;;;;;22.95;45.50;94649.38;2966425;40;20057;-83
2021/07/11 05:55:57;;;;;;;20.58;5.00;;;;;;;22.81;46.36;94654.19;2962170;40;20186;-83
2021/07/11 05:57:59;;;;;;;16.27;5.97;;;;;;;23.03;45.39;94657.84;2969511;40;20096;-83
2021/07/11 06:00:01;;;;;;;9.57;4.63;;;;;;;23.07;45.83;94663.56;2968715;40;20060;-84
2021/07/11 06:02:03;;;;;;;17.83;4.80;;;;;;;22.86;46.41;94657.75;2968932;40;20321;-83
2021/07/11 06:04:04;;;;;;;11.20;4.50;;;;;;;23.00;46.50;94658.34;2960612;40;20056;-68
2021/07/11 06:06:06;;;;;;;12.95;4.82;;;;;;;23.12;45.92;94657.50;2962558;40;20088;-70
2021/07/11 06:08:09;;;;;;;15.40;6.18;;;;;;;23.09;45.94;94648.91;2962954;40;20254;-69
2021/07/11 06:10:11;;;;;;;52.97;7.95;;;;;;;23.16;45.86;94650.63;2967498;40;20048;-69
2021/07/11 06:12:12;;;;;;;21.67;5.47;;;;;;;23.04;46.13;94648.81;2969013;40;20426;-84
2021/07/11 06:14:15;;;;;;;28.38;6.15;;;;;;;22.87;46.71;94643.38;2971201;40;20084;-82
2021/07/11 06:16:16;;;;;;;13.73;4.63;;;;;;;22.94;46.30;94642.44;2970719;40;20049;-83
2021/07/11 06:18:18;;;;;;;14.05;4.60;;;;;;;23.23;45.94;94646.78;2966046;40;20149;-82
2021/07/11 06:20:22;;;;;;;10.52;4.70;;;;;;;23.38;46.16;94645.41;2970042;40;20148;-82
2021/07/11 06:22:24;;;;;;;15.45;4.60;;;;;;;23.42;45.82;94642.00;2970939;40;20095;-82
2021/07/11 06:24:25;;;;;;;13.75;5.05;;;;;;;23.58;45.65;94643.09;2969611;40;20058;-82
2021/07/11 06:26:27;;;;;;;16.80;4.65;;;;;;;23.50;44.72;94640.81;2969369;40;20062;-82
2021/07/11 06:28:29;;;;;;;13.48;4.15;;;;;;;23.58;45.33;94647.66;2969515;40;20060;-84
2021/07/11 06:30:31;;;;;;;10.43;4.45;;;;;;;23.63;44.95;94637.81;2968238;40;20048;-82
2021/07/11 06:32:33;;;;;;;9.05;4.50;;;;;;;23.61;45.13;94639.13;2968638;40;20086;-82
2021/07/11 06:34:35;;;;;;;19.05;5.00;;;;;;;23.82;44.83;94643.00;2970709;40;20076;-83
2021/07/11 06:36:37;;;;;;;22.33;4.88;;;;;;;23.81;45.13;94639.50;2971594;40;20055;-82
2021/07/11 06:38:39;;;;;;;17.55;5.32;;;;;;;23.86;44.35;94633.44;2970741;40;20429;-81
2021/07/11 06:40:40;;;;;;;14.43;4.38;;;;;;;23.89;44.65;94635.59;2970240;40;20068;-81
2021/07/11 06:42:42;;;;;;;19.60;4.90;;;;;;;24.11;44.42;94635.66;2968292;40;20064;-84
2021/07/11 06:44:44;;;;;;;43.63;7.57;;;;;;;24.14;43.83;94629.84;2964397;39;20118;-82
2021/07/11 06:46:46;;;;;;;19.55;5.00;;;;;;;24.06;43.19;94625.69;2970027;40;20507;-84
2021/07/11 06:48:48;;;;;;;21.95;4.60;;;;;;;24.21;43.42;94621.63;2970297;40;20165;-82
2021/07/11 06:50:50;;;;;;;19.65;4.70;;;;;;;24.18;43.63;94627.47;2959639;40;20061;-82
2021/07/11 06:52:51;;;;;;;13.65;4.68;;;;;;;24.36;43.62;94626.41;2959423;40;20159;-82
2021/07/11 06:54:54;;;;;;;19.55;4.65;;;;;;;24.59;42.82;94625.41;2970204;40;20075;-83
2021/07/11 06:56:55;;;;;;;6.63;3.55;;;;;;;24.38;43.04;94632.31;2958744;40;20099;-70
2021/07/11 06:58:57;;;;;;;7.50;4.03;;;;;;;24.49;43.17;94628.75;2969094;40;20652;-71
2021/07/11 07:00:59;;;;;;;11.70;4.20;;;;;;;24.54;42.24;94623.44;2969151;40;20401;-69
2021/07/11 07:03:01;;;;;;;7.22;4.53;;;;;;;24.70;42.32;94627.13;2950403;40;20084;-69
2021/07/11 07:05:07;;;;;;;5.50;3.47;;;;;;;24.91;40.36;94623.66;2963387;40;20053;-69
2021/07/11 07:07:09;;;;;;;8.27;3.60;;;;;;;25.08;40.74;94622.75;2967521;40;20060;-71
2021/07/11 07:09:10;;;;;;;8.15;4.03;;;;;;;25.25;40.68;94620.84;2968692;40;20045;-69
2021/07/11 07:11:12;;;;;;;8.40;3.22;;;;;;;25.41;39.87;94623.66;2964818;40;20660;-69
2021/07/11 07:13:14;;;;;;;7.28;4.00;;;;;;;25.30;39.32;94614.72;2964988;40;20059;-68
2021/07/11 07:15:16;;;;;;;5.55;3.75;;;;;;;25.38;39.40;94610.75;2958989;40;20057;-72
2021/07/11 07:17:17;;;;;;;6.43;3.60;;;;;;;25.61;39.17;94631.09;2962161;40;20056;-69
2021/07/11 07:19:19;;;;;;;4.28;3.15;;;;;;;25.75;37.46;94616.19;2964899;40;20533;-69
2021/07/11 07:21:21;;;;;;;5.50;3.05;;;;;;;25.97;37.50;94623.38;2966856;40;20080;-69
2021/07/11 07:23:23;;;;;;;10.98;6.03;;;;;;;26.10;37.28;94628.28;2966905;40;20084;-68
2021/07/11 07:25:24;;;;;;;6.03;3.03;;;;;;;26.20;35.37;94616.78;2966836;40;20069;-69
2021/07/11 07:27:26;;;;;;;4.82;3.22;;;;;;;26.26;36.54;94623.81;2964428;40;20079;-70
2021/07/11 07:29:28;;;;;;;15.63;3.85;;;;;;;26.16;36.97;94624.56;2964393;40;20157;-70
2021/07/11 07:31:29;;;;;;;13.52;4.00;;;;;;;26.22;36.85;94628.09;2954502;40;20152;-68
2021/07/11 07:33:31;;;;;;;14.85;3.75;;;;;;;26.22;36.12;94625.41;2967085;40;20068;-70
2021/07/11 07:35:33;;;;;;;5.15;3.28;;;;;;;26.37;36.31;94622.81;2967325;40;20149;-69
2021/07/11 07:37:35;;;;;;;10.95;3.42;;;;;;;26.44;36.30;94620.72;2964626;40;20152;-70
2021/07/11 07:39:37;;;;;;;11.35;3.60;;;;;;;26.51;36.26;94615.09;2964573;40;20060;-69
2021/07/11 07:41:39;;;;;;;8.75;3.03;;;;;;;26.44;36.65;94619.91;2966145;40;20048;-69
2021/07/11 07:43:40;;;;;;;5.55;3.20;;;;;;;26.56;36.21;94625.91;2964847;40;20142;-70
2021/07/11 07:45:44;;;;;;;6.63;3.13;;;;;;;26.75;35.76;94627.06;2962272;40;20125;-70
2021/07/11 07:47:45;;;;;;;;;;;;;;;26.89;33.30;94618.53;2964139;40;20041;-69
2021/07/11 07:49:47;;;;;;;3.95;2.67;;;;;;;26.76;33.01;94625.22;2969023;40;19947;-70
2021/07/11 07:51:49;;;;;;;8.18;3.33;;;;;;;26.85;32.69;94623.63;2957773;40;20207;-70
2021/07/11 07:53:51;;;;;;;4.25;2.90;;;;;;;26.95;33.24;94620.97;2949650;40;20053;-69
2021/07/11 07:55:52;;;;;;;7.38;2.80;;;;;;;27.03;33.26;94624.22;2958428;40;20138;-70
2021/07/11 07:57:54;;;;;;;3.65;2.85;;;;;;;27.03;33.10;94618.84;2963311;40;20066;-68
2021/07/11 07:59:56;;;;;;;6.45;2.90;;;;;;;27.22;32.87;94628.06;2967473;40;20054;-68
2021/07/11 08:01:58;;;;;;;5.85;3.28;;;;;;;27.22;33.57;94624.59;2961622;40;20134;-70
2021/07/11 08:04:03;;;;;;;6.43;2.97;;;;;;;27.31;34.42;94629.16;2965831;40;20060;-68
2021/07/11 08:06:05;;;;;;;10.43;5.63;;;;;;;27.21;34.79;94618.38;2959065;40;20068;-69
2021/07/11 08:08:08;;;;;;;4.93;3.30;;;;;;;27.25;34.78;94618.66;2965994;40;20064;-80
2021/07/11 08:10:10;;;;;;;7.43;3.72;;;;;;;27.27;35.55;94614.63;2968433;40;20116;-80
2021/07/11 08:12:12;;;;;;;8.80;3.67;;;;;;;27.33;35.19;94610.88;2973718;40;20052;-82
2021/07/11 08:14:14;;;;;;;7.82;3.85;;;;;;;27.37;35.79;94613.84;2967320;40;20048;-81
2021/07/11 08:16:16;;;;;;;11.88;6.10;;;;;;;27.42;35.70;94613.84;2969075;40;20170;-84
2021/07/11 08:18:18;;;;;;;7.15;3.63;;;;;;;27.29;35.87;94617.84;2958138;40;20064;-83
2021/07/11 08:20:21;;;;;;;6.15;3.20;;;;;;;27.49;35.52;94614.41;2959150;40;20128;-81
2021/07/11 08:22:23;;;;;;;9.55;3.20;;;;;;;27.51;35.54;94617.66;2967782;40;20149;-82
2021/07/11 08:24:24;;;;;;;6.03;3.42;;;;;;;27.69;35.79;94610.94;2967493;40;20140;-82
2021/07/11 08:26:26;;;;;;;30.52;5.18;;;;;;;27.58;35.88;94606.63;2968228;40;20056;-81
2021/07/11 08:28:28;;;;;;;5.05;3.35;;;;;;;27.70;34.53;94609.03;2964365;40;20127;-83
2021/07/11 08:30:30;;;;;;;19.58;4.78;;;;;;;27.67;34.51;94617.66;2964578;40;20137;-81
2021/07/11 08:32:32;;;;;;;5.13;3.25;;;;;;;27.69;33.42;94613.63;2967267;40;20140;-83
2021/07/11 08:34:34;;;;;;;7.72;3.38;;;;;;;27.60;33.30;94612.53;2967453;40;20048;-85
2021/07/11 08:36:35;;;;;;;4.25;3.10;;;;;;;27.36;33.69;94613.06;2967659;40;20440;-81
2021/07/11 08:38:37;;;;;;;5.78;2.90;;;;;;;27.45;33.93;94605.25;2966823;40;20146;-80
2021/07/11 08:40:39;;;;;;;5.72;3.20;;;;;;;27.49;33.54;94609.03;2968423;40;20281;-82
2021/07/11 08:42:41;;;;;;;13.98;2.85;;;;;;;27.39;33.53;94611.72;2968605;40;20059;-84
2021/07/11 08:44:43;;;;;;;5.78;3.25;;;;;;;27.64;33.32;94608.25;2958289;40;20055;-81
2021/07/11 08:46:44;;;;;;;13.15;3.17;;;;;;;27.72;33.37;94610.38;2965035;40;20156;-81
2021/07/11 08:48:48;;;;;;;9.82;3.40;;;;;;;27.76;33.08;94611.47;2964485;40;20379;-83
2021/07/11 08:50:50;;;;;;;6.47;3.10;;;;;;;27.80;32.38;94610.94;2962480;40;20130;-84
2021/07/11 08:52:52;;;;;;;6.72;3.28;;;;;;;27.99;32.59;94598.56;2969330;40;20112;-80
2021/07/11 08:54:54;;;;;;;12.20;8.93;;;;;;;28.03;32.27;94601.50;2957124;40;20052;-83
2021/07/11 08:56:59;;;;;;;9.05;3.22;;;;;;;27.94;32.29;94602.09;2961059;40;20060;-82
2021/07/11 08:59:01;;;;;;;5.97;3.25;;;;;;;27.55;31.77;94599.91;2968892;40;20052;-82
2021/07/11 09:01:03;;;;;;;7.90;3.03;;;;;;;27.76;31.93;94602.59;2970226;40;20052;-83
2021/07/11 09:03:06;;;;;;;9.50;4.80;;;;;;;27.77;33.00;94591.56;2955378;40;20366;-82
2021/07/11 09:05:20;;;;;;;8.13;3.20;;;;;;;27.84;32.55;94593.19;2966698;40;20052;-83
2021/07/11 09:07:23;;;;;;;7.70;3.40;;;;;;;27.62;31.97;94594.25;2963805;40;20077;-81
2021/07/11 09:09:25;;;;;;;14.68;2.97;;;;;;;27.70;31.34;94593.69;2967345;40;20124;-83
2021/07/11 09:11:27;;;;;;;8.02;2.40;;;;;;;27.81;30.54;94591.81;2958327;40;20069;-81
2021/07/11 09:13:33;;;;;;;3.60;2.80;;;;;;;28.05;30.23;94592.13;2966052;40;20141;-82
2021/07/11 09:15:36;;;;;;;10.93;3.28;;;;;;;28.18;30.81;94590.75;2967599;40;20100;-82
2021/07/11 09:17:38;;;;;;;7.32;3.10;;;;;;;28.12;31.37;94589.13;2959002;40;20080;-83
2021/07/11 09:19:45;;;;;;;8.45;2.80;;;;;;;28.17;30.29;94592.63;2960219;40;20041;-82
2021/07/11 09:22:16;;;;;;;9.30;3.10;;;;;;;27.80;31.56;94592.09;2969355;40;20071;-81
2021/07/11 09:24:18;;;;;;;5.18;2.60;;;;;;;27.68;31.85;94586.97;2968295;40;20111;-85
2021/07/11 09:26:21;;;;;;;8.32;3.28;;;;;;;27.47;32.23;94586.16;2968206;40;20064;-82
2021/07/11 09:28:22;;;;;;;5.43;2.85;;;;;;;27.74;31.97;94588.59;2968560;40;20547;-83
2021/07/11 09:30:25;;;;;;;4.30;3.00;;;;;;;27.57;31.27;94586.16;2960821;40;20306;-83
2021/07/11 09:32:33;;;;;;;4.15;2.70;;;;;;;27.78;32.00;94582.38;2956181;40;20061;-83
2021/07/11 09:34:39;;;;;;;4.28;2.50;;;;;;;27.77;31.19;94583.47;2968469;40;20148;-86
2021/07/11 09:36:40;;;;;;;4.57;2.47;;;;;;;27.76;30.55;94579.16;2967854;40;20395;-84
2021/07/11 09:38:47;;;;;;;5.63;3.55;;;;;;;28.03;30.64;94583.50;2963443;40;20060;-84
2021/07/11 09:40:49;;;;;;;4.57;2.47;;;;;;;28.24;30.23;94578.06;2961279;40;20053;-82